Time;durP1;ratioP1;P1;durP2;ratioP2;P2;SDS_P1;SDS_P2;PMS_P1;PMS_P2;Temp;Humidity;BMP_temperature;BMP_pressure;BME280_temperature;BME280_humidity;BME280_pressure;Samples;Min_cycle;Max_cycle;Signal;HPM_P1;HPM_P2
2021/04/25 00:01:01;;;;;;;5.43;2.87;;;;;;;11.50;63.60;98500.94;5045992;28;20308;-67
2021/04/25 00:03:27;;;;;;;16.90;3.83;;;;;;;11.47;64.40;98498.69;5042532;28;20214;-65
2021/04/25 00:05:54;;;;;;;4.83;2.57;;;;;;;11.34;65.40;98509.25;5040066;28;20260;-65
2021/04/25 00:08:21;;;;;;;5.20;2.90;;;;;;;11.41;65.06;98504.81;5042005;28;20206;-64
2021/04/25 00:10:48;;;;;;;5.90;2.90;;;;;;;11.19;66.41;98503.16;5034495;28;20229;-65
2021/04/25 00:13:15;;;;;;;7.70;2.70;;;;;;;11.19;66.79;98501.34;5036727;28;20213;-64
2021/04/25 00:15:43;;;;;;;6.37;3.27;;;;;;;11.41;65.34;98496.78;5035304;28;20201;-64
2021/04/25 00:18:09;;;;;;;4.47;2.50;;;;;;;11.17;66.68;98500.69;5041073;28;20313;-67
2021/04/25 00:20:36;;;;;;;7.97;3.00;;;;;;;11.23;66.76;98496.41;5032190;28;20585;-64
2021/04/25 00:23:03;;;;;;;5.50;2.40;;;;;;;11.16;66.89;98492.88;5031463;28;20218;-65
2021/04/25 00:25:30;;;;;;;5.57;2.40;;;;;;;11.09;67.75;98491.97;5039909;28;20211;-65
2021/04/25 00:27:57;;;;;;;4.07;2.77;;;;;;;11.03;68.47;98495.44;5041615;28;20197;-64
2021/04/25 00:30:24;;;;;;;7.73;3.07;;;;;;;11.09;68.38;98491.97;5041065;28;20233;-65
2021/04/25 00:32:52;;;;;;;9.10;2.90;;;;;;;11.18;67.74;98497.00;5044788;28;20202;-65
2021/04/25 00:35:20;;;;;;;5.37;2.70;;;;;;;11.04;68.48;98487.22;5032295;28;20209;-65
2021/04/25 00:37:48;;;;;;;5.60;2.77;;;;;;;11.08;68.15;98487.66;5036749;28;20233;-64
2021/04/25 00:40:17;;;;;;;4.87;2.67;;;;;;;11.05;68.71;98485.38;5037015;28;20706;-64
2021/04/25 00:42:44;;;;;;;4.70;2.50;;;;;;;11.00;68.72;98483.28;5043882;28;20593;-65
2021/04/25 00:45:14;;;;;;;4.93;2.60;;;;;;;10.89;69.04;98485.63;5041578;28;20600;-64
2021/04/25 00:47:42;;;;;;;7.30;2.83;;;;;;;10.92;69.50;98487.94;5041488;28;20209;-65
2021/04/25 00:50:13;;;;;;;5.13;2.60;;;;;;;10.89;70.08;98480.28;5038110;28;20222;-67
2021/04/25 00:52:42;;;;;;;7.03;2.70;;;;;;;10.57;71.31;98475.47;5042224;28;20245;-65
2021/04/25 00:55:11;;;;;;;4.53;2.70;;;;;;;10.64;71.49;98474.50;5042097;28;20216;-64
2021/04/25 00:57:38;;;;;;;6.53;2.40;;;;;;;10.71;70.85;98469.25;5038941;28;20230;-64
2021/04/25 01:00:06;;;;;;;4.90;2.80;;;;;;;10.68;71.15;98463.47;5045276;28;20666;-66
2021/04/25 01:02:34;;;;;;;9.93;2.50;;;;;;;10.69;71.53;98469.44;5035214;28;20210;-66
2021/04/25 01:05:01;;;;;;;6.60;2.60;;;;;;;10.68;71.44;98476.81;5046266;28;20213;-66
2021/04/25 01:07:29;;;;;;;8.67;3.23;;;;;;;10.61;72.00;98482.88;5034630;28;20206;-66
2021/04/25 01:09:56;;;;;;;4.43;2.73;;;;;;;10.71;72.01;98470.06;5034845;28;20205;-66
2021/04/25 01:12:23;;;;;;;4.83;2.73;;;;;;;10.64;72.00;98474.50;5042134;28;20299;-66
2021/04/25 01:14:50;;;;;;;6.67;2.90;;;;;;;10.61;72.10;98466.88;5040443;28;20247;-66
2021/04/25 01:17:17;;;;;;;8.63;2.77;;;;;;;10.60;72.63;98469.75;5044670;28;20260;-66
2021/04/25 01:19:44;;;;;;;7.30;3.23;;;;;;;10.49;74.10;98463.06;5037866;28;20679;-66
2021/04/25 01:22:12;;;;;;;5.67;2.77;;;;;;;10.46;73.98;98470.63;5039950;28;20229;-66
2021/04/25 01:24:38;;;;;;;5.37;2.53;;;;;;;10.45;73.85;98474.31;5045359;28;20342;-66
2021/04/25 01:27:06;;;;;;;6.77;2.90;;;;;;;10.44;73.72;98473.47;5037390;28;20213;-66
2021/04/25 01:29:33;;;;;;;6.33;2.93;;;;;;;10.32;74.44;98474.16;5041307;28;20198;-66
2021/04/25 01:32:00;;;;;;;4.70;2.60;;;;;;;10.28;75.08;98479.03;5033407;28;20574;-66
2021/04/25 01:34:26;;;;;;;5.73;2.53;;;;;;;10.33;75.57;98470.47;5040160;28;20421;-65
2021/04/25 01:36:56;;;;;;;6.30;2.83;;;;;;;10.30;75.31;98479.66;5052715;28;20261;-66
2021/04/25 01:39:24;;;;;;;7.23;2.60;;;;;;;10.26;75.61;98488.25;5046230;28;20263;-66
2021/04/25 01:41:51;;;;;;;5.90;2.87;;;;;;;10.16;76.80;98495.72;5033501;28;20278;-66
2021/04/25 01:44:18;;;;;;;6.03;2.70;;;;;;;10.20;76.78;98497.00;5040673;28;20202;-66
2021/04/25 01:46:45;;;;;;;5.73;2.87;;;;;;;9.98;77.82;98505.88;5039840;28;20213;-66
2021/04/25 01:49:13;;;;;;;5.63;2.53;;;;;;;10.20;76.69;98495.13;5050585;28;20662;-66
2021/04/25 01:51:40;;;;;;;8.93;3.40;;;;;;;10.12;77.43;98504.28;5040611;28;20235;-66
2021/04/25 01:54:07;;;;;;;4.70;2.70;;;;;;;9.90;78.94;98498.81;5040655;28;20194;-66
2021/04/25 01:56:35;;;;;;;7.17;2.77;;;;;;;10.08;78.16;98503.81;5035438;28;20322;-66
2021/04/25 01:59:02;;;;;;;5.47;2.67;;;;;;;10.01;78.80;98505.53;5041035;28;20222;-66
2021/04/25 02:01:29;;;;;;;7.37;2.90;;;;;;;10.00;78.34;98494.03;5046955;28;20217;-65
2021/04/25 02:03:56;;;;;;;7.30;2.50;;;;;;;9.84;80.06;98496.91;5042290;28;20202;-65
2021/04/25 02:06:23;;;;;;;5.60;3.20;;;;;;;9.86;80.24;98494.88;5035754;28;20205;-66
2021/04/25 02:08:50;;;;;;;6.67;3.30;;;;;;;9.94;79.50;98500.09;5034009;28;20624;-66
2021/04/25 02:11:17;;;;;;;6.77;3.37;;;;;;;9.75;80.62;98492.66;5034585;28;20237;-67
2021/04/25 02:13:44;;;;;;;4.73;2.80;;;;;;;9.75;80.86;98491.84;5040887;28;20220;-64
2021/04/25 02:16:12;;;;;;;7.77;3.00;;;;;;;9.66;81.70;98495.59;5033474;28;20206;-66
2021/04/25 02:18:39;;;;;;;5.53;3.23;;;;;;;9.64;81.91;98487.78;5033176;28;20284;-66
2021/04/25 02:21:06;;;;;;;5.13;2.63;;;;;;;9.62;82.09;98481.00;5040569;28;20515;-66
2021/04/25 02:23:33;;;;;;;6.07;2.77;;;;;;;9.49;83.62;98478.16;5033244;28;20213;-66
2021/04/25 02:25:59;;;;;;;6.37;2.80;;;;;;;9.68;82.55;98485.59;5040079;28;20209;-64
2021/04/25 02:28:26;;;;;;;4.73;2.80;;;;;;;9.61;82.72;98484.66;5046209;28;20199;-65
2021/04/25 02:30:54;;;;;;;5.37;3.13;;;;;;;9.69;82.26;98481.94;5046047;28;20275;-64
2021/04/25 02:33:21;;;;;;;7.40;3.70;;;;;;;9.67;81.83;98482.09;5033613;28;20205;-65
2021/04/25 02:35:48;;;;;;;7.00;3.30;;;;;;;9.46;84.46;98474.03;5033241;28;20297;-64
2021/04/25 02:38:15;;;;;;;9.43;3.70;;;;;;;9.44;84.14;98473.34;5039938;28;20277;-65
2021/04/25 02:40:41;;;;;;;9.33;3.13;;;;;;;9.57;83.27;98475.38;5036731;28;20594;-64
2021/04/25 02:43:08;;;;;;;7.37;3.73;;;;;;;9.63;83.06;98474.66;5035403;28;20236;-65
2021/04/25 02:45:35;;;;;;;6.33;2.90;;;;;;;9.58;83.51;98469.88;5046201;28;20198;-65
2021/04/25 02:48:05;;;;;;;6.87;3.33;;;;;;;9.57;83.34;98472.72;5040874;28;20256;-65
2021/04/25 02:50:34;;;;;;;7.53;3.57;;;;;;;9.45;84.02;98471.53;5046425;28;20227;-65
2021/04/25 02:53:01;;;;;;;7.30;3.33;;;;;;;9.33;85.03;98471.16;5036208;28;20216;-65
2021/04/25 02:55:28;;;;;;;8.20;3.70;;;;;;;9.49;84.50;98464.84;5034703;28;20201;-64
2021/04/25 02:57:55;;;;;;;8.00;3.37;;;;;;;9.47;85.10;98469.50;5031266;28;20959;-65
2021/04/25 03:00:24;;;;;;;6.80;3.23;;;;;;;9.36;85.66;98464.63;5032482;28;20763;-65
2021/04/25 03:02:51;;;;;;;6.20;3.53;;;;;;;9.45;84.98;98466.19;5039371;28;20204;-66
2021/04/25 03:05:19;;;;;;;5.70;3.10;;;;;;;9.27;86.31;98465.72;5031768;28;20204;-65
2021/04/25 03:07:46;;;;;;;6.90;3.50;;;;;;;9.32;86.91;98463.31;5039436;28;20278;-65
2021/04/25 03:10:14;;;;;;;6.53;3.33;;;;;;;9.30;87.05;98457.38;5036422;28;20712;-65
2021/04/25 03:12:41;;;;;;;7.47;3.47;;;;;;;9.17;88.03;98460.66;5045235;28;20687;-65
2021/04/25 03:15:09;;;;;;;6.27;3.17;;;;;;;9.21;87.53;98461.94;5048852;28;20212;-65
2021/04/25 03:17:37;;;;;;;5.97;3.30;;;;;;;9.10;89.82;98454.41;5034848;28;20212;-66
2021/04/25 03:20:05;;;;;;;4.60;2.83;;;;;;;8.98;90.49;98461.16;5038407;28;20327;-65
2021/04/25 03:22:32;;;;;;;6.20;3.43;;;;;;;8.98;91.34;98457.69;5039686;28;20231;-65
2021/04/25 03:24:59;;;;;;;5.87;3.20;;;;;;;8.95;91.42;98455.38;5032010;28;20271;-65
2021/04/25 03:27:26;;;;;;;8.63;3.80;;;;;;;8.92;92.41;98455.72;5040088;28;20201;-65
2021/04/25 03:29:53;;;;;;;6.10;3.30;;;;;;;8.94;92.60;98457.19;5032963;28;20203;-66
2021/04/25 03:32:20;;;;;;;6.90;3.30;;;;;;;8.77;93.35;98461.00;5032840;28;20586;-65
2021/04/25 03:34:47;;;;;;;4.50;2.83;;;;;;;8.74;94.38;98458.72;5036788;28;20213;-65
2021/04/25 03:37:14;;;;;;;7.13;3.07;;;;;;;8.75;94.36;98462.19;5031025;28;20213;-65
2021/04/25 03:39:41;;;;;;;7.37;3.43;;;;;;;8.72;93.88;98460.72;5042255;28;20234;-65
2021/04/25 03:42:09;;;;;;;9.30;3.53;;;;;;;8.60;95.31;98461.31;5031850;28;20588;-65
2021/04/25 03:44:35;;;;;;;8.70;3.50;;;;;;;8.56;96.48;98470.63;5032142;28;20211;-66
2021/04/25 03:47:02;;;;;;;7.03;3.50;;;;;;;8.59;95.91;98468.47;5033566;28;20199;-66
2021/04/25 03:49:29;;;;;;;7.47;3.53;;;;;;;8.57;96.47;98469.66;5032095;28;20206;-65
2021/04/25 03:51:56;;;;;;;6.10;3.30;;;;;;;8.59;95.47;98460.50;5042743;28;20286;-67
2021/04/25 03:54:23;;;;;;;4.93;2.97;;;;;;;8.52;96.61;98475.50;5034439;28;20204;-66
2021/04/25 03:56:52;;;;;;;6.57;3.10;;;;;;;8.45;97.05;98479.88;5042732;28;20295;-65
2021/04/25 03:59:19;;;;;;;6.03;2.87;;;;;;;8.57;96.40;98482.97;5031039;28;20220;-65
2021/04/25 04:01:45;;;;;;;6.80;3.50;;;;;;;8.37;96.88;98487.06;5040423;28;20224;-65
2021/04/25 04:04:12;;;;;;;7.63;3.33;;;;;;;8.52;95.94;98488.78;5032812;28;20208;-65
2021/04/25 04:06:39;;;;;;;8.70;3.73;;;;;;;8.40;96.84;98476.06;5043155;28;20218;-65
2021/04/25 04:09:06;;;;;;;9.43;3.90;;;;;;;8.55;96.81;98480.47;5045235;28;20666;-65
2021/04/25 04:11:33;;;;;;;11.07;4.00;;;;;;;8.42;96.82;98480.22;5037311;28;20230;-65
2021/04/25 04:14:00;;;;;;;6.73;3.23;;;;;;;8.49;97.24;98472.34;5037143;28;20257;-66
2021/04/25 04:16:27;;;;;;;6.10;3.57;;;;;;;8.41;97.76;98481.22;5039241;28;20207;-65
2021/04/25 04:18:54;;;;;;;9.60;4.17;;;;;;;8.57;96.26;98481.09;5037772;28;20322;-65
2021/04/25 04:21:21;;;;;;;7.00;3.70;;;;;;;8.35;98.00;98479.25;5035461;28;20227;-65
2021/04/25 04:23:48;;;;;;;9.63;3.60;;;;;;;8.31;98.65;98483.28;5039119;28;20653;-66
2021/04/25 04:26:15;;;;;;;10.67;4.07;;;;;;;8.46;97.58;98484.19;5039729;28;20258;-66
2021/04/25 04:28:42;;;;;;;7.87;3.53;;;;;;;8.29;98.46;98495.09;5041546;28;20738;-65
2021/04/25 04:31:10;;;;;;;10.47;3.47;;;;;;;8.38;97.54;98497.50;5037522;28;20235;-65
2021/04/25 04:36:08;;;;;;;9.60;3.57;;;;;;;8.39;99.28;98496.53;5027006;28;20569;-67
2021/04/25 04:38:35;;;;;;;7.30;4.17;;;;;;;8.38;100.00;98499.38;5032112;28;20705;-68
2021/04/25 04:41:02;;;;;;;5.67;3.50;;;;;;;8.35;99.66;98518.31;5034492;28;20265;-69
2021/04/25 04:43:28;;;;;;;6.60;3.83;;;;;;;8.34;100.00;98517.50;5022591;28;20593;-69
2021/04/25 04:45:55;;;;;;;8.40;3.83;;;;;;;8.10;100.00;98519.41;5029228;28;20282;-70
2021/04/25 04:48:23;;;;;;;12.60;4.10;;;;;;;8.43;100.00;98524.41;5027611;28;20208;-70
2021/04/25 04:50:50;;;;;;;10.30;3.80;;;;;;;8.48;100.00;98519.41;5033917;28;20211;-70
2021/04/25 04:53:17;;;;;;;8.00;3.73;;;;;;;8.49;100.00;98536.19;5025279;28;20665;-69
2021/04/25 04:55:44;;;;;;;7.73;3.87;;;;;;;8.53;98.32;98526.88;5032864;28;20324;-66
2021/04/25 04:58:11;;;;;;;7.93;3.50;;;;;;;8.84;97.31;98525.81;5033558;28;20227;-71
2021/04/25 05:00:37;;;;;;;7.03;3.77;;;;;;;8.77;97.31;98530.19;5028464;28;20212;-71
2021/04/25 05:03:04;;;;;;;7.47;3.33;;;;;;;8.94;96.36;98521.06;5025198;28;20223;-72
2021/04/25 05:05:32;;;;;;;8.60;3.30;;;;;;;9.14;93.64;98516.91;5032336;28;20224;-72
2021/04/25 05:07:59;;;;;;;8.27;3.80;;;;;;;9.21;93.01;98511.72;5028864;28;20205;-72
2021/04/25 05:10:26;;;;;;;8.83;4.60;;;;;;;9.29;92.59;98523.09;5030281;28;20212;-69
2021/04/25 05:12:53;;;;;;;7.60;4.00;;;;;;;9.53;90.55;98530.88;5029048;28;20551;-70
2021/04/25 05:15:20;;;;;;;6.00;3.37;;;;;;;9.52;89.56;98523.91;5029528;28;20237;-69
2021/04/25 05:17:46;;;;;;;7.83;3.30;;;;;;;9.75;88.55;98527.31;5031414;28;20709;-69
2021/04/25 05:20:14;;;;;;;7.70;3.90;;;;;;;9.76;86.82;98528.16;5030920;28;20201;-71
2021/04/25 05:22:41;;;;;;;9.83;4.00;;;;;;;9.92;85.45;98531.47;5022462;28;20216;-70
2021/04/25 05:25:09;;;;;;;7.47;4.10;;;;;;;10.23;83.59;98535.81;5030148;28;20240;-69
2021/04/25 05:27:36;;;;;;;8.07;3.50;;;;;;;9.82;86.08;98543.41;5032721;28;20209;-70
2021/04/25 05:30:03;;;;;;;7.57;4.30;;;;;;;9.66;85.88;98541.75;5030380;28;20551;-70
2021/04/25 05:32:30;;;;;;;11.23;3.93;;;;;;;9.56;86.66;98543.84;5031741;28;20210;-70
2021/04/25 05:34:57;;;;;;;11.57;4.77;;;;;;;9.51;87.35;98543.56;5027587;28;20236;-70
2021/04/25 05:37:24;;;;;;;9.07;3.93;;;;;;;9.69;86.72;98543.22;5030396;28;20205;-70
2021/04/25 05:39:51;;;;;;;7.73;4.13;;;;;;;10.04;84.11;98543.34;5031668;28;20229;-70
2021/04/25 05:42:18;;;;;;;11.60;4.43;;;;;;;10.03;83.96;98552.34;5033139;28;20205;-69
2021/04/25 05:44:45;;;;;;;7.53;4.00;;;;;;;9.66;86.10;98544.41;5032838;28;20237;-69
2021/04/25 05:47:12;;;;;;;9.73;3.90;;;;;;;9.83;85.38;98558.38;5025371;28;20287;-70
2021/04/25 05:49:39;;;;;;;9.77;3.67;;;;;;;10.05;84.54;98558.34;5031442;28;20213;-71
2021/04/25 05:52:06;;;;;;;8.90;4.50;;;;;;;10.09;84.43;98556.97;5028944;28;20209;-71
2021/04/25 05:54:33;;;;;;;5.60;3.63;;;;;;;10.52;80.79;98564.09;5031765;28;20228;-70
2021/04/25 05:57:00;;;;;;;7.27;3.87;;;;;;;10.55;79.85;98563.72;5033096;28;20299;-71
2021/04/25 05:59:27;;;;;;;9.00;4.30;;;;;;;10.61;79.82;98562.97;5029850;28;20225;-70
2021/04/25 06:01:54;;;;;;;11.30;4.87;;;;;;;9.82;84.11;98567.41;5027815;28;20262;-71
2021/04/25 06:04:21;;;;;;;9.07;4.00;;;;;;;10.21;81.89;98578.66;5029025;28;20267;-71
2021/04/25 06:06:47;;;;;;;8.00;4.20;;;;;;;10.35;80.78;98575.16;5030573;28;20335;-71
2021/04/25 06:09:14;;;;;;;9.33;4.03;;;;;;;10.60;80.16;98573.84;5028654;28;20201;-70
2021/04/25 06:11:41;;;;;;;10.07;4.43;;;;;;;10.66;79.14;98573.09;5030468;28;20578;-68
2021/04/25 06:14:09;;;;;;;8.50;4.20;;;;;;;10.33;80.60;98575.34;5028065;28;20218;-69
2021/04/25 06:16:36;;;;;;;7.50;4.20;;;;;;;10.65;79.41;98576.78;5021519;28;20264;-71
2021/04/25 06:19:03;;;;;;;7.37;4.37;;;;;;;10.88;78.52;98579.31;5023709;28;20244;-71
2021/04/25 06:21:30;;;;;;;8.20;4.60;;;;;;;10.93;77.35;98573.19;5026190;28;20203;-69
2021/04/25 06:23:57;;;;;;;9.13;4.83;;;;;;;10.69;78.68;98581.53;5029533;28;20228;-68
2021/04/25 06:26:24;;;;;;;9.60;5.23;;;;;;;10.94;77.81;98579.34;5030125;28;20213;-71
2021/04/25 06:28:51;;;;;;;15.23;5.60;;;;;;;11.46;75.39;98578.03;5030975;28;20213;-73
2021/04/25 06:31:19;;;;;;;10.40;4.90;;;;;;;10.84;77.81;98576.16;5021425;28;20207;-75
2021/04/25 06:33:47;;;;;;;9.97;4.67;;;;;;;11.11;77.02;98583.44;5026472;28;20919;-78
2021/04/25 06:36:14;;;;;;;9.23;4.90;;;;;;;11.24;76.48;98578.22;5028578;28;20206;-72
2021/04/25 06:38:41;;;;;;;9.67;5.07;;;;;;;11.33;76.10;98585.09;5029469;28;20232;-78
2021/04/25 06:41:08;;;;;;;12.13;5.23;;;;;;;11.56;74.12;98586.53;5018599;28;20199;-74
2021/04/25 06:43:35;;;;;;;8.50;5.10;;;;;;;11.24;75.84;98586.22;5024960;28;20203;-73
2021/04/25 06:46:02;;;;;;;10.03;4.87;;;;;;;11.14;75.96;98586.56;5026291;28;20268;-74
2021/04/25 06:48:30;;;;;;;8.63;4.63;;;;;;;11.79;73.21;98581.00;5029149;28;20203;-79
2021/04/25 06:50:57;;;;;;;7.43;4.83;;;;;;;11.92;71.25;98596.31;5028595;28;20212;-72
2021/04/25 06:53:23;;;;;;;9.83;5.23;;;;;;;12.16;69.51;98594.00;5027393;28;20210;-71
2021/04/25 06:55:50;;;;;;;10.83;5.20;;;;;;;11.27;74.39;98589.34;5031113;28;20226;-72
2021/04/25 06:58:17;;;;;;;9.27;4.80;;;;;;;11.56;74.23;98585.72;5028458;28;20318;-74
2021/04/25 07:00:44;;;;;;;12.20;5.57;;;;;;;12.28;70.12;98590.56;5023057;28;20583;-72
2021/04/25 07:03:11;;;;;;;9.13;4.93;;;;;;;12.30;69.90;98593.06;5023691;28;20212;-72
2021/04/25 07:05:39;;;;;;;11.40;5.03;;;;;;;11.88;72.85;98597.72;5029999;28;20697;-79
2021/04/25 07:08:07;;;;;;;9.90;5.20;;;;;;;11.77;73.49;98597.22;5022279;28;20228;-71
2021/04/25 07:10:34;;;;;;;11.43;5.43;;;;;;;12.57;71.15;98602.06;5028669;28;21945;-71
2021/04/25 07:13:01;;;;;;;11.83;5.40;;;;;;;11.82;70.88;98601.16;5016434;28;20641;-71
2021/04/25 07:15:28;;;;;;;11.67;5.97;;;;;;;11.61;73.31;98590.50;5030740;28;20222;-73
2021/04/25 07:17:56;;;;;;;12.93;5.70;;;;;;;12.16;72.48;98588.66;5027430;28;20300;-70
2021/04/25 07:20:23;;;;;;;10.80;4.70;;;;;;;12.46;70.28;98594.59;5020901;28;20209;-75
2021/04/25 07:22:50;;;;;;;8.87;5.30;;;;;;;12.30;68.89;98593.06;5030196;28;20202;-71
2021/04/25 07:25:18;;;;;;;10.13;5.83;;;;;;;12.63;70.24;98592.19;5025447;28;20222;-70
2021/04/25 07:27:44;;;;;;;12.57;6.10;;;;;;;12.70;66.54;98597.59;5028752;28;20298;-70
2021/04/25 07:30:12;;;;;;;17.17;6.87;;;;;;;12.54;67.21;98588.03;5025398;28;20203;-73
2021/04/25 07:32:39;;;;;;;10.50;5.67;;;;;;;13.04;65.86;98588.66;5027403;28;20263;-70
2021/04/25 07:35:07;;;;;;;13.10;5.90;;;;;;;13.02;66.05;98588.06;5026389;28;20236;-70
2021/04/25 07:37:34;;;;;;;10.67;6.00;;;;;;;12.82;64.79;98595.16;5021304;28;20207;-69
2021/04/25 07:40:03;;;;;;;11.80;6.03;;;;;;;12.61;66.28;98589.94;5025029;28;20228;-71
2021/04/25 07:42:30;;;;;;;8.50;5.60;;;;;;;13.59;61.91;98593.72;5026617;28;20207;-69
2021/04/25 07:44:57;;;;;;;10.07;6.00;;;;;;;13.40;61.63;98606.06;5027903;28;20629;-72
2021/04/25 07:47:24;;;;;;;10.80;6.30;;;;;;;13.54;61.17;98597.00;5026529;28;20255;-73
2021/04/25 07:49:50;;;;;;;10.40;6.43;;;;;;;12.73;66.64;98589.16;5017699;28;20696;-70
2021/04/25 07:52:17;;;;;;;12.13;6.57;;;;;;;12.74;65.48;98594.28;5024735;28;20231;-70
2021/04/25 07:54:44;;;;;;;14.87;5.77;;;;;;;12.53;68.38;98581.03;5021284;28;20758;-71
2021/04/25 07:57:12;;;;;;;12.97;6.40;;;;;;;13.63;62.63;98590.38;5027559;28;20202;-71
2021/04/25 07:59:38;;;;;;;13.33;6.90;;;;;;;13.33;61.56;98589.13;5029071;28;20237;-68
2021/04/25 08:02:05;;;;;;;10.97;6.73;;;;;;;13.95;59.74;98583.38;5027826;28;20211;-69
2021/04/25 08:04:32;;;;;;;13.23;6.97;;;;;;;13.31;61.01;98598.41;5024698;28;20232;-70
2021/04/25 08:06:59;;;;;;;12.30;6.83;;;;;;;13.11;64.03;98584.16;5026313;28;20231;-69
2021/04/25 08:09:26;;;;;;;15.37;7.27;;;;;;;13.11;63.30;98581.47;5025751;28;20253;-69
2021/04/25 08:11:54;;;;;;;17.20;7.13;;;;;;;13.62;61.35;98580.69;5029859;28;20228;-72
2021/04/25 08:14:22;;;;;;;9.30;6.20;;;;;;;13.55;61.93;98579.03;5023968;28;20224;-75
2021/04/25 08:16:49;;;;;;;11.93;6.53;;;10.40;1.00;;;13.69;61.48;98580.72;5021295;28;20253;-68
2021/04/25 08:19:15;;;;;;;13.30;7.37;;;10.50;1.00;;;13.61;60.58;98580.91;5024602;28;20255;-68
2021/04/25 08:21:42;;;;;;;13.93;7.03;;;10.60;1.00;;;14.18;58.71;98586.44;5030059;28;20205;-66
2021/04/25 08:24:09;;;;;;;10.80;6.90;;;10.80;1.00;;;13.94;59.60;98581.72;5020939;28;20227;-68
2021/04/25 08:26:35;;;;;;;17.23;7.57;;;10.90;1.00;;;14.28;59.17;98586.88;5021654;28;20198;-68
2021/04/25 08:29:02;;;;;;;12.53;7.20;;;11.00;1.00;;;14.47;56.46;98585.97;5023819;28;20798;-68
2021/04/25 08:31:29;;;;;;;11.70;6.67;;;11.10;1.00;;;14.53;55.95;98598.59;5028087;28;20348;-66
2021/04/25 08:33:56;;;;;;;17.33;8.67;;;11.10;1.00;;;13.85;58.25;98599.06;5026359;28;20226;-67
2021/04/25 08:36:22;;;;;;;15.83;7.73;;;11.20;1.00;;;13.93;57.79;98596.19;5029286;28;20256;-68
2021/04/25 08:38:48;;;;;;;14.90;7.90;;;11.00;1.00;;;13.62;57.79;98601.34;5019507;28;20320;-68
2021/04/25 08:41:18;;;;;;;12.43;7.20;;;10.80;1.00;;;14.39;55.17;98600.47;5020303;28;20205;-68
2021/04/25 08:43:45;;;;;;;16.37;7.97;;;11.00;1.00;;;14.35;54.89;98601.09;5024639;28;20293;-68
2021/04/25 08:46:13;;;;;;;13.40;7.33;;;11.10;1.00;;;13.70;57.44;98603.81;5027901;28;20206;-68
2021/04/25 08:48:41;;;;;;;12.67;7.03;;;10.90;1.00;;;14.22;56.15;98601.13;5026673;28;20214;-68
2021/04/25 08:51:11;;;;;;;12.00;6.90;;;11.00;1.00;;;14.65;54.75;98600.38;5026500;28;20605;-68
2021/04/25 08:53:39;;;;;;;12.07;6.27;;;11.20;1.00;;;15.12;51.67;98605.34;5021781;28;20265;-68
2021/04/25 08:56:06;;;;;;;13.77;7.13;;;11.40;1.00;;;14.60;53.69;98613.66;5019416;28;20215;-68
2021/04/25 08:58:34;;;;;;;15.30;7.17;;;11.60;1.00;;;14.53;52.91;98612.81;5029094;28;20294;-66
2021/04/25 09:01:01;;;;;;;13.90;7.17;;;11.60;1.00;;;14.31;53.39;98616.81;5027673;28;20298;-66
2021/04/25 09:03:27;;;;;;;14.37;7.50;;;11.40;1.00;;;14.62;52.04;98611.56;5028713;28;20203;-66
2021/04/25 09:05:58;;;;;;;13.30;7.57;;;11.20;1.00;;;14.31;53.27;98610.59;5027327;28;20236;-66
2021/04/25 09:08:46;;;;;;;12.93;7.30;;;11.30;1.00;;;13.99;52.04;98614.94;5032813;28;20226;-67
2021/04/25 09:11:28;;;;;;;11.40;6.03;;;11.20;1.00;;;14.64;50.24;98611.34;5022219;28;20213;-66
2021/04/25 09:14:19;;;;;;;10.73;6.80;;;11.40;1.00;;;14.43;51.08;98608.94;5028552;28;20575;-66
2021/04/25 09:16:58;;;;;;;13.27;7.50;;;11.60;1.00;;;15.16;50.47;98606.59;5032727;28;20239;-69
2021/04/25 09:19:26;;;;;;;11.17;6.23;;;11.70;1.00;;;14.82;49.13;98608.78;5026312;28;20226;-67
2021/04/25 09:21:59;;;;;;;12.67;6.60;;;11.90;1.00;;;15.45;47.82;98614.06;5028795;28;20298;-66
2021/04/25 09:24:28;;;;;;;11.43;6.20;;;11.90;1.00;;;14.83;45.21;98626.56;5019715;28;20273;-66
2021/04/25 09:26:56;;;;;;;11.07;6.40;;;11.90;1.00;;;15.16;48.66;98605.75;5028738;28;20251;-66
2021/04/25 09:29:25;;;;;;;12.17;6.90;;;12.00;1.00;;;15.75;48.03;98598.16;5031840;28;20199;-67
2021/04/25 09:31:52;;;;;;;12.03;6.00;;;12.30;1.00;;;16.34;45.62;98611.88;5029985;28;20203;-67
2021/04/25 09:34:27;;;;;;;9.17;5.83;;;12.70;1.00;;;15.63;46.18;98603.41;5023246;28;20235;-67
2021/04/25 09:36:55;;;;;;;12.03;5.90;;;12.70;1.00;;;15.61;45.14;98599.28;5032247;28;20305;-66
2021/04/25 09:39:23;;;;;;;9.63;5.30;;;12.70;1.00;;;16.10;44.33;98602.78;5027442;28;20247;-66
2021/04/25 09:41:51;;;;;;;10.77;5.13;;;12.80;1.00;;;16.05;43.55;98616.09;5023617;28;20211;-69
2021/04/25 09:44:32;;;;;;;10.20;5.67;;;13.00;1.00;;;15.25;44.52;98609.84;5028128;28;20218;-67
2021/04/25 09:47:03;;;;;;;11.80;6.30;;;12.70;1.00;;;15.70;44.12;98606.84;5021047;28;20618;-66
2021/04/25 09:49:43;;;;;;;11.03;5.67;;;12.40;1.00;;;16.05;44.15;98599.94;5024312;28;20650;-66
2021/04/25 09:52:12;;;;;;;10.97;5.87;;;12.70;1.00;;;16.01;43.25;98606.81;5024547;28;20219;-67
2021/04/25 09:54:40;;;;;;;12.10;5.70;;;13.00;1.00;;;16.55;42.20;98604.22;5020066;28;20660;-67
2021/04/25 09:57:08;;;;;;;9.27;5.23;;;13.00;1.00;;;16.20;42.64;98610.34;5025073;28;20233;-66
2021/04/25 09:59:50;;;;;;;9.10;6.03;;;13.20;1.00;;;15.64;42.40;98607.72;5031019;28;20319;-67
2021/04/25 10:02:17;;;;;;;9.30;4.90;;;13.20;1.00;;;16.03;43.05;98593.13;5031636;28;20216;-67
2021/04/25 10:04:43;;;;;;;10.80;5.77;;;13.10;1.00;;;16.74;40.29;98610.44;5029347;28;20250;-67
2021/04/25 10:07:11;;;;;;;15.90;5.70;;;13.30;1.00;;;16.06;41.97;98600.78;5020638;28;20207;-68
2021/04/25 10:09:37;;;;;;;11.87;4.90;;;13.30;1.00;;;16.69;41.20;98596.81;5028186;28;20594;-67
2021/04/25 10:12:06;;;;;;;9.60;5.30;;;13.50;1.00;;;16.67;41.10;98597.03;5023954;28;20559;-67
2021/04/25 10:14:34;;;;;;;10.77;5.70;;;;;;;15.67;42.17;98598.41;5020121;28;20221;-66
2021/04/25 10:17:03;;;;;;;9.23;5.53;;;;;;;16.44;41.14;98598.75;5030223;28;20240;-66
2021/04/25 10:19:30;;;;;;;12.70;5.73;;;;;;;16.88;41.88;98595.75;5028870;28;20229;-66
2021/04/25 10:21:57;;;;;;;15.33;4.73;;;;;;;16.98;39.56;98601.44;5031689;28;20203;-66
2021/04/25 10:24:24;;;;;;;8.40;4.67;;;;;;;17.26;39.23;98591.72;5027719;28;20230;-67
2021/04/25 10:26:59;;;;;;;11.67;5.10;;;;;;;16.44;39.17;98602.28;5030113;28;20198;-68
2021/04/25 10:29:31;;;;;;;10.97;5.07;;;;;;;16.52;41.15;98598.47;5030285;28;21637;-67
2021/04/25 10:32:00;;;;;;;11.83;5.13;;;;;;;16.14;40.63;98595.09;5026412;28;20243;-66
2021/04/25 10:34:27;;;;;;;8.77;3.93;;;;;;;16.41;36.89;98601.91;5020131;28;20247;-67
2021/04/25 10:37:16;;;;;;;9.70;4.47;;;;;;;16.69;39.28;98594.94;5025445;28;20289;-67
2021/04/25 10:39:46;;;;;;;9.97;4.87;;;;;;;16.58;39.33;98590.31;5028757;28;20227;-67
2021/04/25 10:42:32;;;;;;;10.57;5.30;;;;;;;16.85;39.67;98593.50;5022079;28;20219;-66
2021/04/25 10:45:17;;;;;;;11.50;5.20;;;;;;;16.85;39.14;98583.56;5026590;28;20564;-67
2021/04/25 10:47:46;;;;;;;9.87;5.00;;;;;;;16.50;38.80;98587.91;5025781;28;20409;-66
2021/04/25 10:50:38;;;;;;;9.67;4.73;;;;;;;16.80;38.73;98580.72;5026519;28;20357;-68
2021/04/25 10:53:28;;;;;;;8.97;5.23;;;;;;;16.23;40.18;98581.13;5024245;28;20614;-67
2021/04/25 10:56:31;;;;;;;10.50;5.33;;;;;;;17.39;37.48;98582.63;5020037;28;20232;-68
2021/04/25 10:59:27;;;;;;;10.40;5.07;;;;;;;16.49;38.46;98593.50;5018479;28;20210;-68
2021/04/25 11:01:56;;;;;;;11.23;4.93;;;;;;;16.69;38.97;98580.63;5026549;28;20568;-66
2021/04/25 11:05:05;;;;;;;9.33;5.43;;;;;;;16.73;38.58;98584.53;5026590;28;20429;-68
2021/04/25 11:07:40;;;;;;;9.73;4.50;;;;;;;16.66;38.92;98581.91;5016591;28;20297;-66
2021/04/25 11:10:07;;;;;;;7.10;4.53;;;;;;;15.94;39.14;98587.19;5022830;28;20201;-66
2021/04/25 11:12:39;;;;;;;7.83;4.30;;;;;;;16.24;38.52;98574.69;5026515;28;20305;-68
2021/04/25 11:15:07;;;;;;;8.10;4.17;;;;;;;17.44;36.31;98578.22;5025397;28;20227;-68
2021/04/25 11:17:35;;;;;;;8.60;4.93;;;;;;;16.59;36.90;98596.50;5017232;28;20213;-66
2021/04/25 11:20:29;;;;;;;7.00;3.87;;;;;;;16.65;36.90;98580.28;5024463;28;20240;-66
2021/04/25 11:22:56;;;;;;;8.00;4.23;;;;;;;16.63;35.51;98592.31;5023977;28;20232;-66
2021/04/25 11:25:31;;;;;;;6.80;3.57;;;;;;;16.16;36.03;98598.41;5023741;28;20228;-66
2021/04/25 11:27:58;;;;;;;7.53;4.03;;;;;;;15.93;36.06;98601.72;5024569;28;20205;-67
2021/04/25 11:30:42;;;;;;;7.63;3.63;;;;;;;16.65;35.57;98584.81;5028033;28;20247;-65